This is the latest recevied weather packets stored in our database for station/object CE3TL-WX. If no packets are shown the sender has not sent any weather packets the latest 1 day(s).
| Time | Temp. | Humidity | Pressure | Rain* | Wind** | Luminosity | Snow |
|---|---|---|---|---|---|---|---|
| 1778010575 | 19.44° C | 41% | 1020.2 hPa | - | 1.34 m/s, 0° | - | - |
| 1778010040 | 20° C | 39% | 1020.2 hPa | - | 1.34 m/s, 0° | - | - |
| 1778009505 | 20° C | 36% | 1020 hPa | - | 0.89 m/s, 0° | - | - |
| 1778008971 | 20° C | 36% | 1020 hPa | - | 0.89 m/s, 0° | - | - |
| 1778008437 | 20.56° C | 35% | 1020 hPa | - | 1.34 m/s, 0° | - | - |
| 1778007902 | 20.56° C | 35% | 1019.8 hPa | - | 1.79 m/s, 0° | - | - |
| 1778007370 | 20.56° C | 34% | 1019.9 hPa | - | 2.24 m/s, 0° | - | - |
| 1778006833 | 20.56° C | 34% | 1019.8 hPa | - | 1.79 m/s, 0° | - | - |
| 1778006299 | 21.11° C | 34% | 1019.8 hPa | - | 1.79 m/s, 0° | - | - |
| 1778005765 | 21.11° C | 33% | 1019.7 hPa | - | 1.34 m/s, 0° | - | - |
| 1778005230 | 21.11° C | 32% | 1019.5 hPa | - | 2.24 m/s, 0° | - | - |
| 1778004696 | 21.11° C | 34% | 1019.6 hPa | - | 1.79 m/s, 0° | - | - |
| 1778004162 | 21.11° C | 33% | 1019.5 hPa | - | 1.34 m/s, 0° | - | - |
| 1778003628 | 21.11° C | 31% | 1019.5 hPa | - | 1.34 m/s, 0° | - | - |
| 1778003095 | 21.11° C | 33% | 1019.5 hPa | - | 1.79 m/s, 0° | - | - |
| 1778002560 | 21.11° C | 33% | 1019.4 hPa | - | 1.34 m/s, 0° | - | - |
| 1778002026 | 21.11° C | 36% | 1019.6 hPa | - | 1.34 m/s, 0° | - | - |
| 1778001492 | 21.11° C | 34% | 1019.4 hPa | - | 1.34 m/s, 0° | - | - |
| 1778000958 | 20.56° C | 35% | 1019.5 hPa | - | 1.79 m/s, 0° | - | - |
| 1778000424 | 20.56° C | 35% | 1019.4 hPa | - | 1.34 m/s, 0° | - | - |
| 1777999890 | 20.56° C | 37% | 1019.6 hPa | - | 1.34 m/s, 0° | - | - |
| 1777999354 | 20.56° C | 36% | 1019.7 hPa | - | 0.89 m/s, 0° | - | - |
| 1777998819 | 20° C | 37% | 1019.8 hPa | - | 1.34 m/s, 0° | - | - |
| 1777998286 | 20° C | 38% | 1019.8 hPa | - | 1.34 m/s, 0° | - | - |
| 1777997752 | 20° C | 38% | 1019.8 hPa | - | 1.34 m/s, 0° | - | - |
* Rain since midnight (hover to see other rain measurements)
** Current wind speed in m/s (hover to see current wind gust speed)